Time;durP1;ratioP1;P1;durP2;ratioP2;P2;SDS_P1;SDS_P2;PMS_P1;PMS_P2;Temp;Humidity;BMP_temperature;BMP_pressure;BME280_temperature;BME280_humidity;BME280_pressure;Samples;Min_cycle;Max_cycle;Signal;HPM_P1;HPM_P2
2021/07/23 00:00:56;;;;;;;23.45;15.02;;;;;;;17.09;88.06;101124.94;5015861;28;20201;-81
2021/07/23 00:03:23;;;;;;;19.45;13.77;;;;;;;17.01;88.74;101132.66;5007418;28;20038;-83
2021/07/23 00:05:51;;;;;;;23.30;14.07;;;;;;;17.09;88.36;101127.59;5031989;28;20132;-80
2021/07/23 00:08:18;;;;;;;21.15;15.10;;;;;;;17.06;88.89;101130.47;4995865;28;20552;-82
2021/07/23 00:10:45;;;;;;;25.98;14.85;;;;;;;16.83;89.62;101128.75;4991641;28;20137;-82
2021/07/23 00:13:12;;;;;;;21.55;14.82;;;;;;;16.90;89.83;101128.19;4996833;28;20045;-81
2021/07/23 00:15:40;;;;;;;24.63;15.00;;;;;;;16.93;89.67;101132.41;5017206;28;20069;-81
2021/07/23 00:18:07;;;;;;;23.88;14.75;;;;;;;16.81;90.55;101128.06;5003928;28;20144;-83
2021/07/23 00:20:34;;;;;;;23.73;15.10;;;;;;;16.81;90.87;101125.38;5016829;28;20091;-80
2021/07/23 00:23:01;;;;;;;22.05;14.63;;;;;;;16.64;92.16;101121.31;5019003;28;20203;-82
2021/07/23 00:25:29;;;;;;;24.65;15.75;;;;;;;16.48;92.88;101126.09;5031017;28;20044;-82
2021/07/23 00:27:56;;;;;;;23.60;14.43;;;;;;;16.33;93.85;101114.84;5026709;28;20045;-81
2021/07/23 00:30:23;;;;;;;24.92;15.15;;;;;;;16.20;94.56;101120.22;5012040;28;20132;-82
2021/07/23 00:32:50;;;;;;;23.08;15.45;;;;;;;16.08;95.35;101116.69;5009016;28;20177;-80
2021/07/23 00:35:18;;;;;;;21.45;14.73;;;;;;;16.04;96.27;101117.88;5020047;28;20080;-83
2021/07/23 00:37:45;;;;;;;21.95;16.27;;;;;;;16.05;96.59;101111.59;5019839;28;20132;-82
2021/07/23 00:40:14;;;;;;;22.58;15.77;;;;;;;15.95;96.75;101107.91;5042354;28;20033;-80
2021/07/23 00:42:42;;;;;;;21.85;15.10;;;;;;;15.89;97.46;101116.31;5011279;28;20057;-82
2021/07/23 00:45:10;;;;;;;25.88;15.90;;;;;;;15.94;97.99;101116.84;4998317;28;20053;-80
2021/07/23 00:47:40;;;;;;;21.60;15.82;;;;;;;16.10;97.61;101108.59;4998452;28;20123;-82
2021/07/23 00:50:08;;;;;;;24.27;15.88;;;;;;;15.97;98.05;101113.09;5020686;28;20077;-81
2021/07/23 00:52:35;;;;;;;25.83;16.88;;;;;;;15.87;98.82;101110.28;5021314;28;20054;-82
2021/07/23 00:55:03;;;;;;;23.70;17.25;;;;;;;15.81;99.56;101102.78;4997146;28;20416;-82
2021/07/23 00:57:30;;;;;;;25.33;17.15;;;;;;;15.84;99.66;101107.84;5025994;28;20192;-84
2021/07/23 00:59:58;;;;;;;26.27;17.48;;;;;;;15.76;100.00;101100.47;5018137;28;20427;-81
2021/07/23 01:02:25;;;;;;;22.65;16.02;;;;;;;15.70;100.00;101120.31;5008556;28;20045;-79
2021/07/23 01:04:54;;;;;;;24.67;15.88;;;;;;;15.69;100.00;101107.16;5028485;28;20476;-82
2021/07/23 01:07:21;;;;;;;19.90;14.75;;;;;;;15.71;100.00;101107.88;4996656;28;20061;-83
2021/07/23 01:09:48;;;;;;;26.48;17.10;;;;;;;15.67;100.00;101106.44;5015723;28;20572;-82
2021/07/23 01:12:16;;;;;;;22.20;16.60;;;;;;;15.61;100.00;101106.84;5013330;28;20038;-80
2021/07/23 01:14:43;;;;;;;24.65;16.17;;;;;;;15.59;100.00;101106.97;5000880;28;20139;-84
2021/07/23 01:17:11;;;;;;;27.42;18.17;;;;;;;15.57;100.00;101106.19;5024307;28;20120;-81
2021/07/23 01:19:44;;;;;;;23.65;16.65;;;;;;;15.52;100.00;101107.50;5019386;28;20064;-82
2021/07/23 01:22:12;;;;;;;24.85;15.60;;;;;;;15.46;100.00;101106.16;4998354;28;20124;-82
2021/07/23 01:24:40;;;;;;;24.92;16.80;;;;;;;15.48;100.00;101111.34;5016015;28;20049;-81
2021/07/23 01:27:07;;;;;;;26.63;16.23;;;;;;;15.70;100.00;101116.81;5009270;28;20579;-83
2021/07/23 01:29:34;;;;;;;24.17;16.27;;;;;;;15.82;100.00;101115.09;5014369;28;20072;-82
2021/07/23 01:32:01;;;;;;;25.48;17.30;;;;;;;16.19;99.79;101113.22;5017452;28;20080;-83
2021/07/23 01:34:29;;;;;;;24.15;16.33;;;;;;;16.18;99.57;101104.41;5015585;28;20032;-81
2021/07/23 01:36:56;;;;;;;24.05;16.15;;;;;;;16.13;99.71;101098.59;4966738;28;21457;-83
2021/07/23 01:39:24;;;;;;;24.60;16.85;;;;;;;16.20;99.56;101107.78;4996905;28;20448;-82
2021/07/23 01:41:52;;;;;;;31.10;17.20;;;;;;;16.23;99.79;101100.56;5014755;28;20103;-82
2021/07/23 01:44:19;;;;;;;28.52;17.08;;;;;;;16.05;100.00;101094.81;5024992;28;20053;-81
2021/07/23 01:46:46;;;;;;;22.58;15.60;;;;;;;15.89;100.00;101092.41;5028519;28;20358;-83
2021/07/23 01:49:13;;;;;;;20.58;16.23;;;;;;;15.80;100.00;101090.44;5012341;28;20041;-83
2021/07/23 01:51:41;;;;;;;20.10;15.45;;;;;;;15.74;100.00;101097.06;5035571;28;20049;-80
2021/07/23 01:54:08;;;;;;;24.13;17.20;;;;;;;15.67;100.00;101091.38;5037881;28;20080;-82
2021/07/23 01:56:35;;;;;;;26.95;16.67;;;;;;;15.87;100.00;101089.03;5008213;28;20057;-83
2021/07/23 01:59:02;;;;;;;26.75;17.00;;;;;;;15.89;100.00;101087.09;5015731;28;20108;-84
2021/07/23 02:01:30;;;;;;;27.15;17.20;;;;;;;15.87;100.00;101078.44;4996056;28;20139;-85
2021/07/23 02:03:57;;;;;;;23.27;16.10;;;;;;;15.78;100.00;101079.94;4999189;28;20050;-83
2021/07/23 02:06:24;;;;;;;23.17;17.60;;;;;;;15.74;100.00;101074.97;5010961;28;20103;-80
2021/07/23 02:08:51;;;;;;;26.40;17.33;;;;;;;15.62;100.00;101079.34;5016836;28;20301;-83
2021/07/23 02:11:19;;;;;;;24.02;17.45;;;;;;;15.56;100.00;101077.97;5015679;28;20079;-80
2021/07/23 02:13:46;;;;;;;28.63;17.67;;;;;;;15.56;100.00;101080.63;5033290;28;20052;-82
2021/07/23 02:16:13;;;;;;;23.98;17.52;;;;;;;15.57;100.00;101078.81;5010489;28;20053;-81
2021/07/23 02:18:40;;;;;;;21.88;15.88;;;;;;;15.57;100.00;101079.66;5014289;28;20128;-83
2021/07/23 02:21:08;;;;;;;28.40;17.15;;;;;;;15.67;100.00;101086.06;4990613;28;20432;-82
2021/07/23 02:23:35;;;;;;;24.15;16.45;;;;;;;16.03;100.00;101080.78;5006294;28;20491;-81
2021/07/23 02:26:02;;;;;;;20.00;15.18;;;;;;;16.28;100.00;101085.94;5015669;28;20041;-82
2021/07/23 02:28:30;;;;;;;21.75;16.15;;;;;;;16.32;99.40;101087.41;5029208;28;20518;-82
2021/07/23 02:30:57;;;;;;;23.67;16.05;;;;;;;16.31;99.63;101085.72;5006675;28;20099;-82
2021/07/23 02:33:24;;;;;;;24.17;16.10;;;;;;;16.36;98.88;101088.03;4987932;28;20136;-82
2021/07/23 02:35:51;;;;;;;20.10;15.18;;;;;;;16.30;99.50;101080.50;5000548;28;20049;-81
2021/07/23 02:38:18;;;;;;;24.77;17.10;;;;;;;16.15;100.00;101071.91;4985159;28;20124;-82
2021/07/23 02:40:46;;;;;;;27.02;16.08;;;;;;;16.14;100.00;101067.56;5019814;28;20131;-82
2021/07/23 02:43:13;;;;;;;24.58;16.00;;;;;;;16.13;100.00;101069.38;5016298;28;20041;-85
2021/07/23 02:45:40;;;;;;;22.83;15.27;;;;;;;16.04;100.00;101067.41;4996714;28;20057;-82
2021/07/23 02:48:07;;;;;;;26.15;17.33;;;;;;;16.11;100.00;101068.63;4983807;28;20489;-84
2021/07/23 02:50:34;;;;;;;26.63;17.10;;;;;;;16.02;100.00;101063.16;5024730;28;20081;-83
2021/07/23 02:53:03;;;;;;;26.85;17.92;;;;;;;15.85;100.00;101061.75;5033463;28;20132;-81
2021/07/23 02:55:30;;;;;;;24.65;15.77;;;;;;;15.88;100.00;101061.53;5018367;28;20212;-83
2021/07/23 02:57:57;;;;;;;31.05;16.88;;;;;;;16.00;100.00;101060.63;5006029;28;20041;-82
2021/07/23 03:00:24;;;;;;;29.65;18.67;;;;;;;15.83;100.00;101064.53;5014749;28;20497;-81
2021/07/23 03:02:52;;;;;;;22.25;16.80;;;;;;;15.78;100.00;101063.19;5011948;28;20136;-81
2021/07/23 03:05:19;;;;;;;28.88;17.60;;;;;;;15.72;100.00;101059.19;5037505;28;20045;-83
2021/07/23 03:08:01;;;;;;;32.80;20.45;;;;;;;15.78;100.00;101066.69;5012360;28;20136;-83
2021/07/23 03:10:29;;;;;;;30.52;18.45;;;;;;;15.66;100.00;101056.94;5021025;28;20043;-81
2021/07/23 03:12:56;;;;;;;25.73;17.65;;;;;;;15.66;100.00;101060.44;5029885;28;20492;-83
2021/07/23 03:15:23;;;;;;;25.17;17.33;;;;;;;15.65;100.00;101069.38;5015526;28;20256;-82
2021/07/23 03:17:50;;;;;;;24.02;16.80;;;;;;;15.62;100.00;101063.41;5030708;28;20223;-82
2021/07/23 03:20:18;;;;;;;24.30;17.02;;;;;;;15.62;100.00;101064.25;5028356;28;20124;-82
2021/07/23 03:22:45;;;;;;;24.17;17.60;;;;;;;15.76;100.00;101060.66;5046672;28;20114;-84
2021/07/23 03:25:13;;;;;;;24.42;16.40;;;;;;;15.79;100.00;101063.06;4992247;28;20060;-83
2021/07/23 03:27:40;;;;;;;24.23;16.33;;;;;;;15.93;100.00;101076.16;5000386;28;20427;-84
2021/07/23 03:30:08;;;;;;;27.05;17.60;;;;;;;15.97;100.00;101067.97;5036142;28;20049;-83
2021/07/23 03:32:35;;;;;;;32.80;17.65;;;;;;;16.06;100.00;101068.13;5020808;28;20045;-80
2021/07/23 03:35:02;;;;;;;28.25;17.63;;;;;;;16.00;100.00;101059.78;4998154;28;20156;-84
2021/07/23 03:37:30;;;;;;;29.70;17.42;;;;;;;16.01;100.00;101062.31;5011239;28;20046;-81
2021/07/23 03:39:57;;;;;;;27.00;17.77;;;;;;;16.12;100.00;101065.03;5010198;28;20079;-82
2021/07/23 03:42:24;;;;;;;25.92;18.50;;;;;;;16.13;100.00;101058.75;5033613;28;20103;-80
2021/07/23 03:44:52;;;;;;;25.95;17.42;;;;;;;16.19;100.00;101065.41;5019881;28;20056;-82
2021/07/23 03:47:19;;;;;;;35.05;20.35;;;;;;;16.20;100.00;101067.94;4998096;28;20054;-83
2021/07/23 03:49:47;;;;;;;30.67;16.08;;;;;;;16.36;100.00;101064.13;4980776;28;20054;-83
2021/07/23 03:52:14;;;;;;;26.45;16.35;;;;;;;16.50;99.81;101065.72;5029105;28;20054;-81
2021/07/23 03:54:42;;;;;;;25.50;18.00;;;;;;;16.49;99.49;101062.22;5000324;28;20405;-85
2021/07/23 03:57:09;;;;;;;32.28;18.38;;;;;;;16.54;98.94;101067.19;5034700;28;20059;-84
2021/07/23 03:59:36;;;;;;;31.08;18.40;;;;;;;16.48;99.59;101060.53;5010439;28;20453;-83
2021/07/23 04:02:03;;;;;;;23.33;16.20;;;;;;;16.46;99.65;101059.78;5011062;28;20481;-81
2021/07/23 04:04:30;;;;;;;25.02;18.25;;;;;;;16.62;98.21;101062.97;4980104;28;20053;-81
2021/07/23 04:07:01;;;;;;;24.92;16.70;;;;;;;16.64;98.21;101060.19;5021340;28;20572;-82
2021/07/23 04:09:29;;;;;;;25.75;16.38;;;;;;;16.75;97.59;101064.69;4994198;28;20567;-83
2021/07/23 04:11:56;;;;;;;26.38;17.40;;;;;;;16.86;96.72;101062.06;5019278;28;20148;-83
2021/07/23 04:14:23;;;;;;;28.17;17.23;;;;;;;16.87;96.78;101058.44;5037042;28;20045;-82
2021/07/23 04:16:51;;;;;;;25.92;17.98;;;;;;;17.00;96.23;101061.81;5025584;28;20557;-82
2021/07/23 04:19:18;;;;;;;26.25;17.48;;;;;;;17.20;94.74;101060.22;4999980;28;20049;-83
2021/07/23 04:21:45;;;;;;;32.45;18.35;;;;;;;17.52;92.60;101057.66;4994275;28;20069;-84
2021/07/23 04:24:13;;;;;;;24.27;17.70;;;;;;;17.68;91.89;101055.41;5026484;28;20059;-85
2021/07/23 04:26:40;;;;;;;24.15;17.52;;;;;;;17.77;91.80;101066.31;5012218;28;20148;-83
2021/07/23 04:29:07;;;;;;;25.20;16.95;;;;;;;17.73;91.94;101055.03;4987499;28;20046;-82
2021/07/23 04:31:34;;;;;;;23.55;18.00;;;;;;;17.62;92.28;101063.91;5009342;28;20141;-85
2021/07/23 04:34:02;;;;;;;24.08;17.55;;;;;;;17.64;92.55;101058.44;5034984;28;20131;-84
2021/07/23 04:36:29;;;;;;;24.70;17.73;;;;;;;17.68;91.79;101058.06;5017362;28;20100;-82
2021/07/23 04:38:56;;;;;;;26.55;17.75;;;;;;;17.71;91.88;101055.16;5014535;28;20072;-81
2021/07/23 04:41:23;;;;;;;26.35;17.33;;;;;;;17.65;92.26;101063.66;5013306;28;20054;-85
2021/07/23 04:43:51;;;;;;;25.80;18.10;;;;;;;17.65;92.67;101061.00;5045027;28;20135;-82
2021/07/23 04:46:18;;;;;;;24.77;17.50;;;;;;;17.70;92.33;101057.97;5004613;28;20045;-84
2021/07/23 04:48:45;;;;;;;26.10;17.90;;;;;;;17.68;92.23;101057.22;5017161;28;20526;-83
2021/07/23 04:51:12;;;;;;;32.47;18.23;;;;;;;17.78;91.61;101055.53;5023110;28;20390;-83
2021/07/23 04:53:40;;;;;;;23.40;17.17;;;;;;;17.97;91.10;101057.53;5011079;28;20053;-83
2021/07/23 04:56:07;;;;;;;27.13;17.50;;;;;;;18.21;90.20;101051.97;5001368;28;20049;-84
2021/07/23 04:58:38;;;;;;;23.95;17.27;;;;;;;18.39;88.33;101049.56;5002123;28;20124;-81
2021/07/23 05:01:05;;;;;;;29.10;18.05;;;;;;;18.89;86.09;101045.22;5028187;28;20117;-83
2021/07/23 05:03:40;;;;;;;23.27;16.42;;;;;;;19.57;81.87;101044.59;4985440;28;20135;-83
2021/07/23 05:06:08;;;;;;;19.67;15.70;;;;;;;20.25;79.27;101045.47;5010617;28;20045;-83
2021/07/23 05:08:36;;;;;;;25.60;17.75;;;;;;;20.96;74.82;101053.06;4986228;28;20112;-83
2021/07/23 05:11:08;;;;;;;27.52;17.00;;;;;;;22.02;70.99;101043.53;5009911;28;20045;-83
2021/07/23 05:13:35;;;;;;;31.83;16.60;;;;;;;23.14;64.82;101051.66;5016269;28;20037;-84
2021/07/23 05:16:03;;;;;;;26.05;16.40;;;;;;;22.75;65.41;101049.44;5023083;28;20073;-81
2021/07/23 05:18:31;;;;;;;26.25;15.52;;;;;;;23.52;62.49;101048.59;5020424;28;20144;-83
2021/07/23 05:20:58;;;;;;;21.85;16.27;;;;;;;23.41;62.26;101050.56;5020075;28;20063;-80
2021/07/23 05:23:25;;;;;;;28.77;16.58;;;;;;;23.93;60.70;101044.16;5029297;28;20076;-83
2021/07/23 05:25:52;;;;;;;25.10;16.00;;;;;;;24.64;58.83;101050.69;5033703;28;20055;-83
2021/07/23 05:28:20;;;;;;;32.65;26.85;;;;;;;24.93;57.43;101048.25;5026796;28;20427;-82
2021/07/23 05:31:04;;;;;;;38.20;26.48;;;;;;;24.55;57.68;101049.03;5016585;28;20088;-84
2021/07/23 05:33:31;;;;;;;27.05;20.67;;;;;;;23.14;61.83;101054.34;4967474;28;20073;-83
2021/07/23 05:35:58;;;;;;;29.58;19.63;;;;;;;22.33;65.06;101053.84;5025001;28;20132;-81
2021/07/23 05:38:26;;;;;;;22.58;18.10;;;;;;;22.38;65.45;101043.47;5010981;28;20049;-84
2021/07/23 05:40:53;;;;;;;26.48;17.17;;;;;;;;;;5012270;28;20142;-82
2021/07/23 05:43:20;;;;;;;27.30;16.65;;;;;;;22.57;64.81;101045.97;5031823;28;20216;-84
2021/07/23 05:45:47;;;;;;;27.40;17.65;;;;;;;22.57;64.48;101045.13;4994197;28;20053;-84
2021/07/23 05:48:14;;;;;;;25.90;17.33;;;;;;;22.44;64.86;101045.56;5034778;28;20513;-83
2021/07/23 05:50:41;;;;;;;27.55;18.00;;;;;;;22.35;65.35;101044.66;5012713;28;20112;-82
2021/07/23 05:53:09;;;;;;;30.10;18.10;;;;;;;21.66;67.92;101043.53;5000636;28;20119;-83
2021/07/23 05:55:36;;;;;;;28.02;17.55;;;;;;;21.38;68.65;101040.03;5015897;28;20693;-86
2021/07/23 05:58:03;;;;;;;28.63;18.65;;;;;;;21.37;69.97;101049.06;5041481;28;20531;-83
2021/07/23 06:00:30;;;;;;;31.92;20.02;;;;;;;21.12;70.53;101044.38;5030476;28;20065;-85
2021/07/23 06:03:04;;;;;;;37.60;22.38;;;;;;;21.80;68.36;101047.53;5003488;28;20387;-82
2021/07/23 06:05:31;;;;;;;28.80;16.98;;;;;;;22.52;66.47;101042.94;5002886;28;20077;-81
2021/07/23 06:07:59;;;;;;;31.58;19.17;;;;;;;22.64;65.67;101041.66;4997703;28;20116;-83
2021/07/23 06:10:26;;;;;;;31.13;17.15;;;;;;;23.69;61.93;101039.59;5030459;28;20053;-87
2021/07/23 06:12:54;;;;;;;27.58;17.67;;;;;;;25.71;54.95;101038.44;5024636;28;20086;-87
2021/07/23 06:15:34;;;;;;;24.70;17.02;;;;;;;25.75;54.04;101039.75;5024825;28;20110;-87
2021/07/23 06:18:02;;;;;;;27.80;16.92;;;;;;;25.82;52.96;101040.75;4997696;28;20038;-87
2021/07/23 06:20:29;;;;;;;25.65;16.08;;;;;;;25.36;53.72;101046.06;5017662;28;20081;-87
2021/07/23 06:22:57;;;;;;;23.13;16.15;;;;;;;25.04;55.35;101040.78;4989674;28;20057;-87
2021/07/23 06:25:24;;;;;;;25.52;17.20;;;;;;;26.37;51.80;101042.31;5021731;28;20084;-88
2021/07/23 06:27:52;;;;;;;17.52;13.82;;;;;;;27.88;47.70;101041.00;5025911;28;20057;-86
2021/07/23 06:32:17;;;;;;;24.20;16.25;;;;;;;29.38;43.82;101044.06;5058707;28;20747;-73
2021/07/23 06:34:44;;;;;;;24.02;16.08;;;;;;;29.89;41.83;101040.88;5069446;28;20161;-73
2021/07/23 06:37:12;;;;;;;27.23;15.98;;;;;;;28.51;44.24;101047.38;5066554;28;20106;-73
2021/07/23 06:39:39;;;;;;;23.85;16.30;;;;;;;29.02;43.75;101047.91;5067550;28;20482;-73
2021/07/23 06:42:11;;;;;;;27.02;15.75;;;;;;;29.16;42.80;101045.25;5062613;28;20546;-72
2021/07/23 06:44:38;;;;;;;19.35;15.77;;;;;;;28.31;44.32;101051.75;5064388;28;20487;-73
2021/07/23 06:47:05;;;;;;;20.50;15.68;;;;;;;28.20;44.62;101051.25;5049732;28;20125;-73
2021/07/23 06:49:32;;;;;;;23.77;15.32;;;;;;;28.49;43.45;101052.13;5028762;28;20135;-72
2021/07/23 06:52:00;;;;;;;23.67;15.98;;;;;;;26.99;47.00;101051.97;5069314;28;20119;-73
2021/07/23 06:54:28;;;;;;;22.15;14.13;;;;;;;26.55;48.27;101050.09;5042477;28;20430;-73
2021/07/23 06:56:55;;;;;;;26.83;14.82;;;;;;;27.65;44.30;101043.81;5068484;28;20114;-73
2021/07/23 06:59:22;;;;;;;20.48;14.07;;;;;;;26.80;46.57;101042.56;5074389;28;20056;-73
2021/07/23 07:01:49;;;;;;;17.45;13.55;;;;;;;29.10;42.13;101036.06;5059927;28;20112;-73
2021/07/23 07:04:17;;;;;;;18.45;13.57;;;;;;;28.31;42.32;101046.34;5060226;28;20053;-72
2021/07/23 07:06:44;;;;;;;17.17;12.52;;;;;;;28.85;41.94;101053.81;5067614;28;20073;-72
2021/07/23 07:09:11;;;;;;;17.40;12.05;;;;;;;30.28;39.14;101044.69;5047794;28;20537;-72
2021/07/23 07:11:38;;;;;;;16.73;9.88;;;;;;;31.62;35.24;101044.06;5055826;28;20057;-72
2021/07/23 07:14:06;;;;;;;14.82;9.60;;;;;;;29.57;37.64;101047.91;5063217;28;20487;-73
2021/07/23 07:16:33;;;;;;;15.75;9.40;;;;;;;28.85;39.82;101051.09;5071038;28;20174;-72
2021/07/23 07:19:00;;;;;;;12.75;9.35;;;;;;;29.64;38.45;101051.50;5065100;28;20140;-72
2021/07/23 07:21:27;;;;;;;18.85;10.13;;;;;;;29.69;38.62;101046.28;5067385;28;20050;-75
2021/07/23 07:23:54;;;;;;;12.85;9.13;;;;;;;29.52;37.71;101048.50;5065324;28;20068;-73
2021/07/23 07:26:22;;;;;;;12.85;9.07;;;;;;;30.76;35.64;101047.97;5069620;28;20464;-73
2021/07/23 07:28:49;;;;;;;17.80;9.15;;;;;;;31.17;35.41;101046.78;5059119;28;20087;-74
2021/07/23 07:31:17;;;;;;;12.82;9.70;;;;;;;31.43;35.20;101048.59;5062747;28;20045;-74
2021/07/23 07:33:44;;;;;;;18.30;9.55;;;;;;;31.04;34.86;101038.69;5061160;28;20095;-73
2021/07/23 07:36:17;;;;;;;14.85;9.40;;;;;;;30.30;36.17;101039.84;5058758;28;20122;-73
2021/07/23 07:38:45;;;;;;;11.73;8.77;;;;;;;30.05;36.98;101049.66;5063349;28;20147;-72
2021/07/23 07:41:16;;;;;;;11.52;8.07;;;;;;;31.73;33.80;101045.25;5069724;28;20053;-73
2021/07/23 07:43:43;;;;;;;13.63;9.23;;;;;;;32.40;33.22;101041.00;5048361;28;20053;-74
2021/07/23 07:46:11;;;;;;;15.75;9.25;;;;;;;30.87;35.45;101040.22;5030549;28;20151;-74
2021/07/23 07:48:38;;;;;;;13.23;8.98;;;;;;;29.23;38.20;101049.66;5048805;28;20136;-72
2021/07/23 07:51:08;;;;;;;17.90;9.95;;;;;;;28.66;39.44;101048.09;5052325;28;20052;-72
2021/07/23 07:53:42;;;;;;;18.67;11.77;;;;;;;27.84;41.16;101048.66;5050290;28;20507;-72
2021/07/23 07:56:10;;;;;;;16.20;10.90;;;;;;;27.82;41.42;101050.69;5053039;28;20114;-73
2021/07/23 07:58:37;;;;;;;16.02;10.13;;;;;;;27.39;42.49;101045.22;5047465;28;20099;-73
2021/07/23 08:01:08;;;;;;;16.80;10.77;;;;;;;26.99;43.53;101046.56;5027247;28;20063;-73
2021/07/23 08:03:36;;;;;;;19.08;9.98;;;;;;;27.38;42.75;101054.38;5045765;28;20081;-72
2021/07/23 08:06:25;;;;;;;14.60;10.48;;;;;;;27.42;42.43;101054.81;5036845;28;20127;-72
2021/07/23 08:08:54;;;;;;;14.27;9.57;;;;;;;27.59;42.52;101050.84;5026833;28;20178;-73
2021/07/23 08:11:21;;;;;;;14.10;8.82;;;;;;;26.63;43.61;101052.72;5022206;28;20134;-73
2021/07/23 08:13:48;;;;;;;14.82;8.63;;;;;;;25.84;44.83;101056.75;5045139;28;20056;-73
2021/07/23 08:16:15;;;;;;;14.00;10.00;;;;;;;26.30;44.33;101054.88;5044138;28;20128;-73
2021/07/23 08:18:43;;;;;;;14.70;9.25;;;;;;;27.29;42.82;101050.09;5048354;28;20053;-73
2021/07/23 08:21:10;;;;;;;11.50;8.40;;;;;;;27.68;40.17;101041.56;5047988;28;20132;-73
2021/07/23 08:23:37;;;;;;;16.23;8.80;;;;;;;28.81;38.45;101050.66;5051798;28;20518;-73
2021/07/23 08:26:04;;;;;;;14.20;8.88;;;;;;;28.08;39.93;101046.56;5048154;28;20128;-73
2021/07/23 08:28:32;;;;;;;10.45;9.18;;;;;;;28.04;40.39;101042.56;5038243;28;20125;-73
2021/07/23 08:31:00;;;;;;;9.82;7.50;;;;;;;28.30;40.09;101045.50;5029688;28;20102;-73
2021/07/23 08:33:28;;;;;;;14.52;8.43;;;;;;;27.35;40.88;101053.91;5048163;28;20079;-73
2021/07/23 08:35:55;;;;;;;18.98;8.15;;;;;;;26.40;43.02;101046.50;5013938;28;20143;-72
2021/07/23 08:38:22;;;;;;;16.83;8.68;;;;;;;27.03;42.62;101045.16;5045323;28;20762;-73
2021/07/23 08:40:49;;;;;;;12.82;8.18;;;;;;;26.47;42.76;101048.31;5051806;28;20498;-73
2021/07/23 08:43:16;;;;;;;22.73;9.10;;;;;;;26.25;43.17;101041.06;5040348;28;20574;-73
2021/07/23 08:45:44;;;;;;;11.57;7.78;;;;;;;24.91;46.63;101044.91;5037629;28;20136;-73
2021/07/23 08:48:11;;;;;;;11.35;8.75;;;;;;;25.14;46.09;101041.47;5029224;28;20080;-73
2021/07/23 08:50:38;;;;;;;13.25;8.90;;;;;;;25.56;45.92;101037.53;5040089;28;20065;-72
2021/07/23 08:53:11;;;;;;;11.05;9.18;;;;;;;25.13;45.87;101045.19;5049668;28;20053;-72
2021/07/23 08:55:39;;;;;;;14.00;8.05;;;;;;;25.44;45.59;101047.88;5048346;28;20053;-72
2021/07/23 08:58:08;;;;;;;12.20;7.72;;;;;;;26.69;43.10;101040.31;5052860;28;20564;-72
2021/07/23 09:00:36;;;;;;;12.75;8.30;;;;;;;27.35;40.71;101040.38;5052028;28;20500;-73
2021/07/23 09:03:05;;;;;;;12.88;9.07;;;;;;;27.33;41.54;101037.03;5029538;28;20515;-73
2021/07/23 09:05:41;;;;;;;13.02;8.75;;;;;;;27.58;40.93;101029.41;5041650;28;20060;-73
2021/07/23 09:08:12;;;;;;;10.77;7.38;;;;;;;26.91;41.50;101035.84;5039142;28;20080;-72
2021/07/23 09:10:39;;;;;;;9.98;7.95;;;;;;;27.18;40.59;101029.78;5045460;28;20098;-73
2021/07/23 09:13:06;;;;;;;10.15;7.55;;;;;;;27.26;41.00;101018.88;5046128;28;20448;-73
2021/07/23 09:15:41;;;;;;;16.75;7.30;;;;;;;26.81;42.52;101030.72;5044921;28;20498;-73
2021/07/23 09:18:30;;;;;;;9.75;7.53;;;;;;;26.99;41.47;101022.25;5041125;28;20084;-73
2021/07/23 09:21:03;;;;;;;11.75;7.38;;;;;;;27.73;40.58;101022.09;5051183;28;20051;-72
2021/07/23 09:23:32;;;;;;;12.32;7.28;;;;;;;27.43;40.87;101014.06;5051813;28;20139;-73
2021/07/23 09:26:15;;;;;;;11.23;7.45;;;;;;;26.92;41.46;101019.44;5055869;28;20045;-72
2021/07/23 09:28:46;;;;;;;10.98;7.90;;;;;;;26.42;42.41;101022.84;5046445;28;20059;-73
2021/07/23 09:31:22;;;;;;;12.93;7.47;;;;;;;26.56;42.50;101023.91;5052511;28;20073;-73
2021/07/23 09:33:55;;;;;;;10.48;7.22;;;;;;;26.71;41.87;101014.81;5052989;28;20403;-73
2021/07/23 09:36:22;;;;;;;12.95;8.32;;;;;;;26.35;42.26;101014.66;5029930;28;20075;-74
2021/07/23 09:38:50;;;;;;;12.77;8.10;;;;;;;25.87;43.70;101018.63;5045025;28;20337;-72
2021/07/23 09:41:23;;;;;;;14.93;8.48;;;;;;;25.79;43.35;101016.00;5057375;28;20247;-73
2021/07/23 09:44:02;;;;;;;16.20;9.13;;;;;;;26.51;41.93;101011.81;5040508;28;20046;-73
2021/07/23 09:46:40;;;;;;;13.02;8.23;;;;;;;25.56;44.47;101007.88;5047536;28;20114;-73
2021/07/23 09:49:28;;;;;;;19.58;10.48;;;;;;;25.72;43.07;101002.38;5042313;28;20056;-74
2021/07/23 09:51:57;;;;;;;20.67;9.48;;;;;;;25.39;44.41;101009.81;5048489;28;20084;-73
2021/07/23 09:54:24;;;;;;;13.63;9.63;;;;;;;25.43;44.90;101003.91;5054750;28;20224;-73
2021/07/23 09:56:52;;;;;;;14.05;8.55;;;;;;;26.21;43.37;101002.00;5048725;28;20426;-73
2021/07/23 09:59:32;;;;;;;14.52;9.43;;;;;;;25.98;43.50;101002.00;5053293;28;20143;-73
2021/07/23 10:02:00;;;;;;;13.45;8.80;;;;;;;26.96;42.29;101001.84;5018955;28;20067;-74
2021/07/23 10:04:41;;;;;;;12.18;10.70;;;;;;;27.33;40.80;100999.19;5050066;28;20182;-73
2021/07/23 10:07:11;;;;;;;13.23;10.02;;;;;;;27.06;40.60;100998.00;5004101;28;20137;-72
2021/07/23 10:09:40;;;;;;;18.88;10.05;;;;;;;26.54;42.25;100997.13;5042068;28;20151;-73
2021/07/23 10:12:09;;;;;;;13.43;10.30;;;;;;;27.19;41.40;100990.06;5052365;28;20037;-73
2021/07/23 10:14:40;;;;;;;16.05;10.15;;;;;;;26.53;41.83;100998.16;5032141;28;20088;-73
2021/07/23 10:17:10;;;;;;;15.90;9.65;;;;;;;25.87;43.80;100994.38;5040459;28;20088;-73
2021/07/23 10:19:37;;;;;;;15.77;10.95;;;;;;;25.79;43.97;100992.56;5057013;28;20124;-72
2021/07/23 10:22:06;;;;;;;13.90;10.20;;;;;;;25.70;43.59;100986.34;5049580;28;20438;-74
2021/07/23 10:24:36;;;;;;;13.68;10.20;;;;;;;25.90;44.45;100989.44;5045385;28;20053;-73
2021/07/23 10:27:07;;;;;;;14.65;9.48;;;;;;;26.57;43.42;100987.78;5049297;28;20110;-72
2021/07/23 10:29:41;;;;;;;15.88;9.32;;;;;;;27.00;42.42;100986.09;5032732;28;20119;-73
2021/07/23 10:32:23;;;;;;;13.80;9.27;;;;;;;27.32;41.26;100984.00;5040576;28;20237;-72
2021/07/23 10:34:53;;;;;;;15.05;10.07;;;;;;;26.45;43.10;100982.03;5052084;28;20052;-72
2021/07/23 10:37:55;;;;;;;15.48;10.20;;;;;;;26.58;43.33;100982.22;5041581;28;20507;-73
2021/07/23 10:40:37;;;;;;;12.63;8.95;;;;;;;26.72;42.40;100988.63;5049387;28;20144;-73
2021/07/23 10:43:35;;;;;;;12.65;8.32;;;;;;;26.82;42.36;100983.78;5039437;28;20040;-72
2021/07/23 10:46:04;;;;;;;20.00;9.73;;;;;;;27.24;41.82;100980.41;5047972;28;20049;-74
2021/07/23 10:48:48;;;;;;;11.13;8.63;;;;;;;26.40;43.16;100973.63;5033349;28;20129;-72
2021/07/23 10:52:00;;;;;;;14.68;10.60;;;;;;;26.20;42.92;100974.13;5044241;28;20124;-73
2021/07/23 10:54:32;;;;;;;16.58;10.50;;;;;;;26.43;42.86;100962.44;5050921;28;20102;-74
2021/07/23 10:57:02;;;;;;;15.13;10.10;;;;;;;27.15;41.31;100965.28;5040694;28;20143;-71
2021/07/23 10:59:41;;;;;;;10.32;8.43;;;;;;;27.37;40.88;100959.91;5046233;28;20136;-72
2021/07/23 11:02:13;;;;;;;14.50;10.18;;;;;;;27.66;40.34;100961.66;5052422;28;20132;-71
2021/07/23 11:04:42;;;;;;;16.25;10.27;;;;;;;27.55;40.29;100957.59;5046786;28;20140;-73
2021/07/23 11:07:10;;;;;;;12.52;9.30;;;;;;;27.48;40.65;100962.97;5040791;28;20049;-73
2021/07/23 11:09:38;;;;;;;15.60;9.68;;;;;;;26.33;42.77;100959.19;5045407;28;20128;-72
2021/07/23 11:12:18;;;;;;;16.33;10.25;;;;;;;26.34;43.28;100956.28;5045118;28;20080;-74
2021/07/23 11:14:55;;;;;;;13.02;10.13;;;;;;;26.37;42.95;100963.19;5041896;28;20119;-73
2021/07/23 11:17:24;;;;;;;15.30;9.98;;;;;;;26.27;43.43;100963.47;5036718;28;20387;-73
2021/07/23 11:19:55;;;;;;;16.48;10.88;;;;;;;25.90;44.42;100958.94;5053032;28;20511;-74